createdAt,value
2022-10-12T00:00:29.383Z,101545.16
2022-10-12T00:02:56.812Z,101534.72
2022-10-12T00:05:24.174Z,101544.34
2022-10-12T00:07:51.525Z,101535.19
2022-10-12T00:10:19.042Z,101542.16
2022-10-12T00:12:46.380Z,101545.38
2022-10-12T00:15:13.734Z,101541.97
2022-10-12T00:17:41.119Z,101536.84
2022-10-12T00:20:08.761Z,101540.38
2022-10-12T00:22:36.065Z,101538.31
2022-10-12T00:25:03.668Z,101540.22
2022-10-12T00:27:31.045Z,101539.44
2022-10-12T00:29:58.408Z,101549.34
2022-10-12T00:32:25.757Z,101546.72
2022-10-12T00:34:53.220Z,101546.25
2022-10-12T00:37:20.535Z,101543.97
2022-10-12T00:39:48.676Z,101545.34
2022-10-12T00:42:18.994Z,101544.06
2022-10-12T00:44:48.735Z,101535.59
2022-10-12T00:47:38.469Z,101536.19
2022-10-12T00:50:18.786Z,101539.44
2022-10-12T00:53:01.363Z,101538.34
2022-10-12T00:55:36.472Z,101537.41
2022-10-12T00:58:06.513Z,101533.63
2022-10-12T01:00:35.411Z,101538.53
2022-10-12T01:03:04.903Z,101535.78
2022-10-12T01:05:33.087Z,101536.44
2022-10-12T01:08:02.592Z,101528.41
2022-10-12T01:10:29.949Z,101534.69
2022-10-12T01:12:57.471Z,101536.00
2022-10-12T01:15:31.418Z,101538.59
2022-10-12T01:18:45.511Z,101534.84
2022-10-12T01:21:21.251Z,101540.84
2022-10-12T01:24:13.062Z,101539.91
2022-10-12T01:26:43.213Z,101535.22
2022-10-12T01:29:22.349Z,101533.63
2022-10-12T01:31:57.693Z,101537.78
2022-10-12T01:34:25.006Z,101536.16
2022-10-12T01:37:05.235Z,101536.28
2022-10-12T01:39:43.038Z,101528.25
2022-10-12T01:42:17.877Z,101535.53
2022-10-12T01:44:45.259Z,101536.03
2022-10-12T01:47:14.002Z,101536.28
2022-10-12T01:49:41.597Z,101534.03
2022-10-12T01:52:21.135Z,101528.25
2022-10-12T01:54:51.497Z,101540.63
2022-10-12T01:57:38.454Z,101536.13
2022-10-12T02:00:15.202Z,101543.69
2022-10-12T02:03:00.517Z,101543.00
2022-10-12T02:05:34.646Z,101541.41
2022-10-12T02:08:09.242Z,101535.94
2022-10-12T02:10:58.519Z,101536.63
2022-10-12T02:13:30.263Z,101535.63
2022-10-12T02:16:01.667Z,101543.06
2022-10-12T02:18:29.413Z,101539.34
2022-10-12T02:20:59.916Z,101531.56
2022-10-12T02:23:28.732Z,101528.81
2022-10-12T02:26:00.604Z,101525.09
2022-10-12T02:28:30.544Z,101530.72
2022-10-12T02:31:35.706Z,101525.56
2022-10-12T02:34:11.102Z,101518.47
2022-10-12T02:36:50.677Z,101512.00
2022-10-12T02:39:23.992Z,101518.63
2022-10-12T02:41:57.625Z,101507.09
2022-10-12T02:44:33.357Z,101512.13
2022-10-12T02:47:04.419Z,101512.03
2022-10-12T02:49:33.047Z,101519.81
2022-10-12T02:52:01.966Z,101516.88
2022-10-12T02:54:30.099Z,101511.03
2022-10-12T02:56:57.450Z,101513.13
2022-10-12T02:59:24.955Z,101515.53
2022-10-12T03:01:52.328Z,101520.22
2022-10-12T03:04:20.044Z,101507.44
2022-10-12T03:06:47.429Z,101512.25
2022-10-12T03:09:14.728Z,101505.50
2022-10-12T03:11:44.898Z,101500.69
2022-10-12T03:14:13.591Z,101509.25
2022-10-12T03:16:41.385Z,101509.25
2022-10-12T03:19:09.028Z,101505.06
2022-10-12T03:21:36.390Z,101506.44
2022-10-12T03:24:03.710Z,101505.91
2022-10-12T03:26:31.071Z,101502.81
2022-10-12T03:28:58.594Z,101503.91
2022-10-12T03:31:25.944Z,101514.22
2022-10-12T03:33:53.358Z,101504.91
2022-10-12T03:36:20.771Z,101502.03
2022-10-12T03:38:48.339Z,101497.09
2022-10-12T03:41:15.688Z,101507.72
2022-10-12T03:43:43.049Z,101500.47
2022-10-12T03:46:10.364Z,101506.66
2022-10-12T03:48:37.788Z,101502.63
2022-10-12T03:51:05.261Z,101509.25
2022-10-12T03:53:32.794Z,101512.34
2022-10-12T03:56:00.222Z,101506.75
2022-10-12T03:58:27.532Z,101513.38
2022-10-12T04:00:55.375Z,101511.53
2022-10-12T04:03:22.788Z,101510.09
2022-10-12T04:05:57.910Z,101506.91
2022-10-12T04:08:26.792Z,101516.06
2022-10-12T04:10:54.639Z,101508.38
2022-10-12T04:13:22.044Z,101507.69
2022-10-12T04:15:49.611Z,101502.97
2022-10-12T04:18:16.910Z,101501.41
2022-10-12T04:20:47.615Z,101501.25
2022-10-12T04:23:14.962Z,101499.50
2022-10-12T04:25:42.342Z,101499.47
2022-10-12T04:28:09.663Z,101502.22
2022-10-12T04:30:37.120Z,101503.69
2022-10-12T04:33:05.322Z,101501.47
2022-10-12T04:35:32.782Z,101510.97
2022-10-12T04:38:00.166Z,101507.00
2022-10-12T04:40:27.513Z,101499.09
2022-10-12T04:42:56.147Z,101505.72
2022-10-12T04:45:23.659Z,101508.53
2022-10-12T04:47:51.063Z,101501.34
2022-10-12T04:50:18.451Z,101511.00
2022-10-12T04:52:45.823Z,101511.28
2022-10-12T04:55:13.620Z,101512.13
2022-10-12T04:57:41.281Z,101515.47
2022-10-12T05:00:10.668Z,101507.28
2022-10-12T05:02:37.953Z,101510.56
2022-10-12T05:05:05.651Z,101518.16
2022-10-12T05:07:33.019Z,101521.91
2022-10-12T05:10:00.580Z,101520.56
2022-10-12T05:12:27.898Z,101518.78
2022-10-12T05:14:55.392Z,101521.53
2022-10-12T05:17:22.712Z,101518.97
2022-10-12T05:19:53.050Z,101512.50
2022-10-12T05:22:20.359Z,101522.44
2022-10-12T05:24:51.389Z,101520.19
2022-10-12T05:27:21.182Z,101522.72
2022-10-12T05:29:48.727Z,101532.59
2022-10-12T05:32:17.148Z,101534.22
2022-10-12T05:34:44.732Z,101532.94
2022-10-12T05:37:12.023Z,101536.97
2022-10-12T05:39:40.682Z,101539.84
2022-10-12T05:42:08.061Z,101535.09
2022-10-12T05:44:35.622Z,101527.38
2022-10-12T05:47:03.097Z,101530.91
2022-10-12T05:49:31.027Z,101535.22
2022-10-12T05:51:58.481Z,101539.75
2022-10-12T05:54:26.068Z,101527.38
2022-10-12T05:56:53.850Z,101540.22
2022-10-12T05:59:21.950Z,101541.81
2022-10-12T06:01:49.936Z,101529.38
2022-10-12T06:04:17.454Z,101543.69
2022-10-12T06:06:44.774Z,101543.16
2022-10-12T06:09:12.981Z,101556.22
2022-10-12T06:11:40.428Z,101556.19
2022-10-12T06:14:07.883Z,101562.41
2022-10-12T06:16:35.208Z,101558.28
2022-10-12T06:19:02.454Z,101565.81
2022-10-12T06:21:34.324Z,101564.25
2022-10-12T06:24:02.201Z,101574.16
2022-10-12T06:26:31.512Z,101577.41
2022-10-12T06:29:00.809Z,101579.97
2022-10-12T06:31:29.286Z,101583.69
2022-10-12T06:33:56.660Z,101586.56
2022-10-12T06:36:24.122Z,101587.03
2022-10-12T06:38:51.587Z,101583.69
2022-10-12T06:41:18.960Z,101590.03
2022-10-12T06:43:46.321Z,101581.88
2022-10-12T06:46:13.670Z,101587.59
2022-10-12T06:48:41.165Z,101590.94
2022-10-12T06:51:08.665Z,101600.69
2022-10-12T06:53:36.691Z,101593.94
2022-10-12T06:56:08.235Z,101591.84
2022-10-12T06:58:35.938Z,101599.63
2022-10-12T07:01:04.606Z,101607.19
2022-10-12T07:03:32.567Z,101602.16
2022-10-12T07:06:12.360Z,101598.13
2022-10-12T07:08:41.408Z,101606.84
2022-10-12T07:11:11.644Z,101597.56
2022-10-12T07:13:39.839Z,101604.66
2022-10-12T07:16:10.332Z,101608.78
2022-10-12T07:18:39.259Z,101607.06
2022-10-12T07:21:06.711Z,101612.09
2022-10-12T07:23:34.912Z,101613.22
2022-10-12T07:26:02.796Z,101615.97
2022-10-12T07:28:30.227Z,101615.16
2022-10-12T07:31:03.160Z,101602.25
2022-10-12T07:33:34.685Z,101608.03
2022-10-12T07:36:13.794Z,101607.38
2022-10-12T07:38:45.318Z,101608.03
2022-10-12T07:41:13.616Z,101596.91
2022-10-12T07:43:41.319Z,101598.66
2022-10-12T07:46:08.919Z,101585.72
2022-10-12T07:48:36.429Z,101579.25
2022-10-12T07:51:08.815Z,101569.09
2022-10-12T07:53:38.117Z,101575.75
2022-10-12T07:56:07.992Z,101575.03
2022-10-12T07:58:35.337Z,101577.38
2022-10-12T08:01:07.511Z,101580.09
2022-10-12T08:03:35.112Z,101582.13
2022-10-12T08:06:13.691Z,101581.00
2022-10-12T08:08:42.700Z,101594.13
2022-10-12T08:11:12.492Z,101594.38
2022-10-12T08:13:41.178Z,101589.34
2022-10-12T08:16:11.802Z,101580.50
2022-10-12T08:18:39.451Z,101584.84
2022-10-12T08:21:08.960Z,101583.16
2022-10-12T08:23:37.162Z,101585.72
2022-10-12T08:26:05.482Z,101579.69
2022-10-12T08:28:34.336Z,101578.81
2022-10-12T08:31:06.434Z,101578.69
2022-10-12T08:33:35.165Z,101581.06
2022-10-12T08:36:04.561Z,101567.94
2022-10-12T08:38:35.078Z,101580.53
2022-10-12T08:41:30.269Z,101566.81
2022-10-12T08:44:27.294Z,101568.16
2022-10-12T08:47:10.041Z,101566.22
2022-10-12T08:49:40.239Z,101556.69
2022-10-12T08:52:28.686Z,101566.94
2022-10-12T08:55:00.754Z,101560.22
2022-10-12T08:57:28.215Z,101565.97
2022-10-12T08:59:55.613Z,101573.50
2022-10-12T09:02:45.024Z,101558.97
2022-10-12T09:05:21.713Z,101570.63
2022-10-12T09:08:07.360Z,101559.50
2022-10-12T09:10:49.814Z,101561.31
2022-10-12T09:13:35.707Z,101547.22
2022-10-12T09:16:23.096Z,101556.91
2022-10-12T09:18:55.169Z,101559.13
2022-10-12T09:21:25.442Z,101547.00
2022-10-12T09:23:56.693Z,101554.78
2022-10-12T09:26:29.801Z,101553.97
2022-10-12T09:28:58.621Z,101552.53
2022-10-12T09:31:38.640Z,101558.81
2022-10-12T09:34:08.692Z,101563.34
2022-10-12T09:36:38.711Z,101563.66
2022-10-12T09:39:17.165Z,101558.00
2022-10-12T09:41:46.809Z,101561.28
2022-10-12T09:44:26.639Z,101563.91
2022-10-12T09:46:58.577Z,101557.81
2022-10-12T09:49:45.063Z,101556.25
2022-10-12T09:52:15.248Z,101552.41
2022-10-12T09:54:49.028Z,101555.47
2022-10-12T09:57:30.531Z,101555.50
2022-10-12T09:59:57.884Z,101552.31
2022-10-12T10:02:26.774Z,101556.75
2022-10-12T10:04:55.103Z,101546.19
2022-10-12T10:07:28.330Z,101561.41
2022-10-12T10:10:16.973Z,101553.66
2022-10-12T10:12:53.525Z,101553.44
2022-10-12T10:15:23.997Z,101559.47
2022-10-12T10:17:54.718Z,101558.69
2022-10-12T10:20:49.820Z,101559.78
2022-10-12T10:23:25.888Z,101559.47
2022-10-12T10:25:58.071Z,101569.84
2022-10-12T10:28:30.059Z,101550.75
2022-10-12T10:31:04.389Z,101563.13
2022-10-12T10:33:34.059Z,101552.75
2022-10-12T10:36:22.290Z,101558.34
2022-10-12T10:39:05.413Z,101561.13
2022-10-12T10:41:38.803Z,101566.28
2022-10-12T10:44:27.162Z,101558.75
2022-10-12T10:46:57.170Z,101566.69
2022-10-12T10:49:59.273Z,101565.13
2022-10-12T10:52:30.115Z,101556.72
2022-10-12T10:55:20.631Z,101559.47
2022-10-12T10:58:05.456Z,101565.09
2022-10-12T11:00:40.085Z,101558.72
2022-10-12T11:03:18.842Z,101561.94
2022-10-12T11:05:54.683Z,101555.50
2022-10-12T11:08:30.533Z,101557.84
2022-10-12T11:11:02.510Z,101552.69
2022-10-12T11:13:29.682Z,101560.63
2022-10-12T11:16:09.082Z,101556.28
2022-10-12T11:18:46.471Z,101553.44
2022-10-12T11:21:26.734Z,101546.31
2022-10-12T11:24:02.969Z,101540.00
2022-10-12T11:26:43.585Z,101543.97
2022-10-12T11:29:14.901Z,101542.78
2022-10-12T11:31:49.230Z,101546.75
2022-10-12T11:34:20.807Z,101542.41
2022-10-12T11:37:17.702Z,101539.28
2022-10-12T11:39:44.902Z,101538.06
2022-10-12T11:42:21.699Z,101529.72
2022-10-12T11:44:50.201Z,101529.72
2022-10-12T11:47:29.988Z,101535.66
2022-10-12T11:50:20.797Z,101523.72
2022-10-12T11:52:54.830Z,101519.38
2022-10-12T11:55:48.132Z,101521.72
2022-10-12T11:58:42.225Z,101512.94
2022-10-12T12:01:21.528Z,101510.59
2022-10-12T12:04:48.582Z,101510.19
2022-10-12T12:07:35.234Z,101507.31
2022-10-12T12:10:25.576Z,101495.44
2022-10-12T12:13:15.310Z,101501.41
2022-10-12T12:15:49.918Z,101503.44
2022-10-12T12:18:22.948Z,101501.47
2022-10-12T12:21:06.105Z,101497.88
2022-10-12T12:23:51.561Z,101495.47
2022-10-12T12:26:21.608Z,101490.34
2022-10-12T12:29:09.621Z,101493.91
2022-10-12T12:31:37.762Z,101496.72
2022-10-12T12:34:14.563Z,101486.38
2022-10-12T12:36:46.353Z,101481.59
2022-10-12T12:39:24.694Z,101480.41
2022-10-12T12:42:06.855Z,101473.66
2022-10-12T12:44:34.429Z,101480.00
2022-10-12T12:47:26.033Z,101477.63
2022-10-12T12:49:54.127Z,101473.22
2022-10-12T12:52:34.325Z,101469.66
2022-10-12T12:55:35.276Z,101471.28
2022-10-12T12:58:08.494Z,101462.50
2022-10-12T13:01:06.516Z,101468.88
2022-10-12T13:03:47.962Z,101462.94
2022-10-12T13:06:40.170Z,101465.31
2022-10-12T13:09:26.690Z,101464.50
2022-10-12T13:12:15.053Z,101461.31
2022-10-12T13:15:00.933Z,101449.84
2022-10-12T13:18:45.310Z,101453.78
2022-10-12T13:21:15.945Z,101453.41
2022-10-12T13:23:47.411Z,101458.53
2022-10-12T13:26:21.498Z,101451.81
2022-10-12T13:28:50.095Z,101449.44
2022-10-12T13:31:34.714Z,101445.44
2022-10-12T13:34:22.540Z,101442.25
2022-10-12T13:37:03.814Z,101447.44
2022-10-12T13:39:38.981Z,101444.66
2022-10-12T13:42:06.847Z,101441.06
2022-10-12T13:44:36.385Z,101437.91
2022-10-12T13:47:24.355Z,101434.31
2022-10-12T13:49:52.493Z,101425.56
2022-10-12T13:52:32.555Z,101430.72
2022-10-12T13:55:01.542Z,101427.97
2022-10-12T13:57:39.183Z,101427.94
2022-10-12T14:00:16.027Z,101424.38
2022-10-12T14:03:06.395Z,101426.78
2022-10-12T14:05:34.094Z,101441.06
2022-10-12T14:08:14.162Z,101431.94
2022-10-12T14:10:44.439Z,101435.09
2022-10-12T14:13:15.775Z,101431.91
2022-10-12T14:15:43.409Z,101432.72
2022-10-12T14:18:38.168Z,101428.34
2022-10-12T14:21:14.858Z,101425.19
2022-10-12T14:24:09.620Z,101418.00
2022-10-12T14:26:42.560Z,101412.84
2022-10-12T14:29:31.428Z,101425.53
2022-10-12T14:32:04.960Z,101417.19
2022-10-12T14:34:38.910Z,101419.97
2022-10-12T14:37:09.293Z,101427.47
2022-10-12T14:39:36.863Z,101423.88
2022-10-12T14:42:39.716Z,101421.03
2022-10-12T14:45:24.558Z,101429.41
2022-10-12T14:47:52.867Z,101419.44
2022-10-12T14:50:23.948Z,101419.41
2022-10-12T14:53:04.697Z,101422.16
2022-10-12T14:55:34.062Z,101418.22
2022-10-12T14:58:01.802Z,101409.06
2022-10-12T15:00:33.413Z,101414.63
2022-10-12T15:03:01.125Z,101420.56
2022-10-12T15:05:31.842Z,101420.22
2022-10-12T15:08:00.134Z,101415.03
2022-10-12T15:10:28.495Z,101414.59
2022-10-12T15:12:55.848Z,101417.38
2022-10-12T15:15:28.987Z,101414.22
2022-10-12T15:17:59.631Z,101413.06
2022-10-12T15:20:30.793Z,101418.59
2022-10-12T15:23:00.275Z,101402.34
2022-10-12T15:25:49.693Z,101409.78
2022-10-12T15:28:17.914Z,101407.69
2022-10-12T15:31:04.550Z,101403.25
2022-10-12T15:33:33.171Z,101409.09
2022-10-12T15:36:01.123Z,101413.00
2022-10-12T15:38:28.495Z,101412.53
2022-10-12T15:40:58.037Z,101418.44
2022-10-12T15:43:26.000Z,101407.97
2022-10-12T15:45:56.603Z,101410.28
2022-10-12T15:48:24.032Z,101414.16
2022-10-12T15:50:54.150Z,101410.91
2022-10-12T15:53:24.488Z,101408.91
2022-10-12T15:55:53.162Z,101408.03
2022-10-12T15:58:20.724Z,101420.25
2022-10-12T16:00:48.447Z,101416.22
2022-10-12T16:03:24.263Z,101417.03
2022-10-12T16:05:53.746Z,101415.00
2022-10-12T16:08:21.178Z,101409.41
2022-10-12T16:10:49.036Z,101417.28
2022-10-12T16:13:17.501Z,101413.31
2022-10-12T16:15:45.072Z,101416.44
2022-10-12T16:18:15.467Z,101417.56
2022-10-12T16:20:42.866Z,101419.94
2022-10-12T16:23:15.912Z,101424.22
2022-10-12T16:25:46.142Z,101424.25
2022-10-12T16:28:13.614Z,101427.03
2022-10-12T16:30:41.995Z,101428.03
2022-10-12T16:33:09.616Z,101422.03
2022-10-12T16:35:39.379Z,101427.06
2022-10-12T16:38:09.058Z,101416.69
2022-10-12T16:40:41.062Z,101430.91
2022-10-12T16:43:09.438Z,101432.03
2022-10-12T16:45:37.471Z,101435.53
2022-10-12T16:48:05.225Z,101433.22
2022-10-12T16:50:33.172Z,101432.31
2022-10-12T16:53:00.486Z,101432.22
2022-10-12T16:55:27.904Z,101442.00
2022-10-12T16:57:56.997Z,101447.81
2022-10-12T17:00:24.348Z,101445.78
2022-10-12T17:02:55.270Z,101446.09
2022-10-12T17:05:24.778Z,101449.13
2022-10-12T17:07:52.074Z,101449.13
2022-10-12T17:10:19.589Z,101454.94
2022-10-12T17:12:46.978Z,101459.97
2022-10-12T17:15:14.378Z,101461.47
2022-10-12T17:17:41.757Z,101462.59
2022-10-12T17:20:09.682Z,101464.56
2022-10-12T17:22:37.162Z,101468.50
2022-10-12T17:25:04.843Z,101472.41
2022-10-12T17:27:32.528Z,101475.00
2022-10-12T17:29:59.954Z,101472.53
2022-10-12T17:32:27.410Z,101476.72
2022-10-12T17:34:54.782Z,101486.72
2022-10-12T17:37:22.222Z,101483.81
2022-10-12T17:39:50.412Z,101490.91
2022-10-12T17:42:20.534Z,101484.38
2022-10-12T17:44:47.873Z,101494.22
2022-10-12T17:47:15.438Z,101491.44
2022-10-12T17:49:42.992Z,101503.09
2022-10-12T17:52:10.582Z,101502.44
2022-10-12T17:54:37.858Z,101502.22
2022-10-12T17:57:05.276Z,101503.69
2022-10-12T17:59:32.695Z,101507.69
2022-10-12T18:02:00.035Z,101508.28
2022-10-12T18:04:27.368Z,101507.34
2022-10-12T18:06:54.809Z,101504.91
2022-10-12T18:09:22.162Z,101512.69
2022-10-12T18:11:49.538Z,101515.34
2022-10-12T18:14:16.902Z,101511.28
2022-10-12T18:16:44.330Z,101507.34
2022-10-12T18:19:14.596Z,101514.28
2022-10-12T18:21:42.006Z,101511.19
2022-10-12T18:24:16.517Z,101509.72
2022-10-12T18:26:47.348Z,101515.56
2022-10-12T18:29:18.000Z,101508.81
2022-10-12T18:31:45.382Z,101501.41
2022-10-12T18:34:12.879Z,101511.44
2022-10-12T18:36:42.686Z,101501.88
2022-10-12T18:39:10.152Z,101512.69
2022-10-12T18:41:38.253Z,101514.84
2022-10-12T18:44:05.622Z,101509.03
2022-10-12T18:46:34.425Z,101511.72
2022-10-12T18:49:05.148Z,101509.91
2022-10-12T18:51:35.584Z,101506.41
2022-10-12T18:54:06.889Z,101514.66
2022-10-12T18:56:36.241Z,101514.84
2022-10-12T18:59:04.456Z,101509.97
2022-10-12T19:01:32.519Z,101510.81
2022-10-12T19:04:01.875Z,101522.69
2022-10-12T19:06:31.409Z,101534.81
2022-10-12T19:08:59.807Z,101526.38
2022-10-12T19:11:29.387Z,101529.94
2022-10-12T19:13:58.224Z,101526.28
2022-10-12T19:16:26.955Z,101524.41
2022-10-12T19:18:59.979Z,101517.69
2022-10-12T19:21:30.747Z,101514.72
2022-10-12T19:24:01.451Z,101519.34
2022-10-12T19:26:32.327Z,101519.44
2022-10-12T19:29:00.031Z,101525.75
2022-10-12T19:31:34.021Z,101523.16
2022-10-12T19:34:05.177Z,101526.13
2022-10-12T19:36:32.937Z,101524.59
2022-10-12T19:39:02.910Z,101523.75
2022-10-12T19:41:30.998Z,101525.47
2022-10-12T19:43:59.957Z,101528.69
2022-10-12T19:46:28.201Z,101528.16
2022-10-12T19:48:57.451Z,101531.25
2022-10-12T19:51:26.351Z,101523.25
2022-10-12T19:53:55.044Z,101524.31
2022-10-12T19:56:23.637Z,101537.22
2022-10-12T19:58:53.756Z,101540.59
2022-10-12T20:01:24.323Z,101535.22
2022-10-12T20:03:52.157Z,101537.44
2022-10-12T20:06:21.797Z,101538.59
2022-10-12T20:08:51.594Z,101540.72
2022-10-12T20:11:23.906Z,101547.03
2022-10-12T20:13:52.467Z,101543.09
2022-10-12T20:16:21.154Z,101550.94
2022-10-12T20:18:49.685Z,101552.53
2022-10-12T20:21:22.095Z,101551.63
2022-10-12T20:23:50.182Z,101551.63
2022-10-12T20:26:23.861Z,101554.88
2022-10-12T20:28:52.565Z,101553.41
2022-10-12T20:31:23.373Z,101553.66
2022-10-12T20:33:55.879Z,101556.72
2022-10-12T20:36:26.607Z,101558.59
2022-10-12T20:38:54.135Z,101560.09
2022-10-12T20:41:21.926Z,101555.97
2022-10-12T20:43:49.335Z,101557.91
2022-10-12T20:46:18.503Z,101560.66
2022-10-12T20:48:46.286Z,101565.63
2022-10-12T20:51:35.929Z,101571.56
2022-10-12T20:54:05.698Z,101574.06
2022-10-12T20:56:33.554Z,101576.75
2022-10-12T20:59:01.452Z,101574.25
2022-10-12T21:01:29.357Z,101570.84
2022-10-12T21:03:57.281Z,101575.88
2022-10-12T21:06:25.087Z,101577.97
2022-10-12T21:08:55.072Z,101581.28
2022-10-12T21:11:23.576Z,101587.69
2022-10-12T21:13:51.206Z,101594.69
2022-10-12T21:16:19.278Z,101590.34
2022-10-12T21:18:46.839Z,101586.31
2022-10-12T21:21:17.187Z,101587.94
2022-10-12T21:23:55.971Z,101599.50
2022-10-12T21:26:25.582Z,101587.03
2022-10-12T21:28:53.727Z,101592.41
2022-10-12T21:31:22.183Z,101588.41
2022-10-12T21:33:49.657Z,101584.06
2022-10-12T21:36:18.210Z,101595.16
2022-10-12T21:38:46.981Z,101591.50
2022-10-12T21:41:15.739Z,101584.94
2022-10-12T21:43:43.353Z,101582.78
2022-10-12T21:46:13.813Z,101579.47
2022-10-12T21:48:41.495Z,101577.50
2022-10-12T21:51:09.303Z,101582.66
2022-10-12T21:53:38.026Z,101585.66
2022-10-12T21:56:12.953Z,101585.31
2022-10-12T21:58:40.480Z,101574.53
2022-10-12T22:01:11.041Z,101580.50
2022-10-12T22:03:38.418Z,101579.81
2022-10-12T22:06:06.418Z,101584.84
2022-10-12T22:08:33.788Z,101581.75
2022-10-12T22:11:08.964Z,101583.94
2022-10-12T22:13:36.555Z,101582.00
2022-10-12T22:16:06.859Z,101580.50
2022-10-12T22:18:34.982Z,101579.91
2022-10-12T22:21:04.592Z,101585.53
2022-10-12T22:23:32.584Z,101587.59
2022-10-12T22:26:06.467Z,101582.63
2022-10-12T22:28:35.475Z,101581.94
2022-10-12T22:31:07.494Z,101585.78
2022-10-12T22:33:35.464Z,101577.47
2022-10-12T22:36:04.359Z,101582.63
2022-10-12T22:38:32.767Z,101578.59
2022-10-12T22:41:08.312Z,101572.44
2022-10-12T22:43:42.864Z,101571.47
2022-10-12T22:46:10.523Z,101573.34
2022-10-12T22:48:38.288Z,101575.63
2022-10-12T22:51:06.773Z,101571.47
2022-10-12T22:53:35.619Z,101566.47
2022-10-12T22:56:06.603Z,101571.16
2022-10-12T22:58:35.172Z,101562.56
2022-10-12T23:01:04.470Z,101572.44
2022-10-12T23:03:33.552Z,101560.91
2022-10-12T23:06:04.628Z,101571.09
2022-10-12T23:08:32.398Z,101570.00
2022-10-12T23:11:07.508Z,101565.44
2022-10-12T23:13:37.210Z,101570.00
2022-10-12T23:16:16.082Z,101575.59
2022-10-12T23:18:44.100Z,101573.06
2022-10-12T23:21:14.546Z,101569.94
2022-10-12T23:23:43.368Z,101568.34
2022-10-12T23:26:22.410Z,101566.41
2022-10-12T23:28:50.742Z,101575.00
2022-10-12T23:31:26.768Z,101574.09
2022-10-12T23:33:57.257Z,101579.47
2022-10-12T23:36:25.304Z,101580.00
2022-10-12T23:38:52.623Z,101584.69
2022-10-12T23:41:20.386Z,101581.72
2022-10-12T23:43:47.771Z,101579.63
2022-10-12T23:46:15.191Z,101594.50
2022-10-12T23:48:42.434Z,101575.50
2022-10-12T23:51:10.930Z,101582.94
2022-10-12T23:53:39.063Z,101582.34
2022-10-12T23:56:07.003Z,101586.22
2022-10-12T23:58:35.143Z,101581.88
